Rivera, Argentina
Current Conditions -  °F | °C
As of 11:00 PM on Sunday 25 Jan 2015 (Local Time) from SAOC Reporting Station
Few Clouds Few Clouds  
Wind Chill: 79°   Ceiling: Unl
Heat Index: 81°   Visibility: 6mi
Dew Point: 70°   Wind: 18mph
Humidity: 74%   Direction: 360°N
Pressure: 29.8"   Gusts: NA
Location:  37.2°S, 63.23°W
Report Text: SAOC 260200Z 36016KT 9999 FEW030 FEW040CB26/21 Q1009
Loading
Personal Weather Stations






























Interactive Weather Map New forecast layout! Learn more

10-Day Weather Forecast

Advertisements
Track Severe Weather on mobile